sensor_id;sensor_type;location;lat;lon;timestamp;temperature;humidity
26579;DHT22;14227;47.674;19.320;2023-07-20T00:02:00;19.10;66.90
26579;DHT22;14227;47.674;19.320;2023-07-20T00:04:28;19.00;66.70
26579;DHT22;14227;47.674;19.320;2023-07-20T00:06:53;19.00;67.80
26579;DHT22;14227;47.674;19.320;2023-07-20T00:09:19;19.00;69.50
26579;DHT22;14227;47.674;19.320;2023-07-20T00:11:50;19.00;69.60
26579;DHT22;14227;47.674;19.320;2023-07-20T00:14:16;19.00;71.00
26579;DHT22;14227;47.674;19.320;2023-07-20T00:16:43;19.00;72.60
26579;DHT22;14227;47.674;19.320;2023-07-20T00:19:09;19.00;73.90
26579;DHT22;14227;47.674;19.320;2023-07-20T00:21:35;19.10;73.30
26579;DHT22;14227;47.674;19.320;2023-07-20T00:24:01;19.20;73.30
26579;DHT22;14227;47.674;19.320;2023-07-20T00:26:27;19.20;72.10
26579;DHT22;14227;47.674;19.320;2023-07-20T00:28:52;19.10;71.00
26579;DHT22;14227;47.674;19.320;2023-07-20T00:31:18;19.10;72.10
26579;DHT22;14227;47.674;19.320;2023-07-20T00:33:44;19.10;71.10
26579;DHT22;14227;47.674;19.320;2023-07-20T00:36:09;19.00;71.90
26579;DHT22;14227;47.674;19.320;2023-07-20T00:38:35;19.00;72.00
26579;DHT22;14227;47.674;19.320;2023-07-20T00:41:01;19.00;72.10
26579;DHT22;14227;47.674;19.320;2023-07-20T00:43:26;19.00;72.40
26579;DHT22;14227;47.674;19.320;2023-07-20T00:45:52;18.90;72.20
26579;DHT22;14227;47.674;19.320;2023-07-20T00:48:18;18.90;71.30
26579;DHT22;14227;47.674;19.320;2023-07-20T00:50:45;18.80;71.10
26579;DHT22;14227;47.674;19.320;2023-07-20T00:53:11;18.70;69.60
26579;DHT22;14227;47.674;19.320;2023-07-20T00:55:36;18.70;71.20
26579;DHT22;14227;47.674;19.320;2023-07-20T00:58:02;18.60;70.40
26579;DHT22;14227;47.674;19.320;2023-07-20T01:00:29;18.50;70.50
26579;DHT22;14227;47.674;19.320;2023-07-20T01:02:54;18.40;72.20
26579;DHT22;14227;47.674;19.320;2023-07-20T01:05:21;18.40;72.90
26579;DHT22;14227;47.674;19.320;2023-07-20T01:07:58;18.40;72.60
26579;DHT22;14227;47.674;19.320;2023-07-20T01:10:27;18.30;70.80
26579;DHT22;14227;47.674;19.320;2023-07-20T01:12:55;18.20;70.50
26579;DHT22;14227;47.674;19.320;2023-07-20T01:15:21;18.20;70.80
26579;DHT22;14227;47.674;19.320;2023-07-20T01:17:46;18.10;71.30
26579;DHT22;14227;47.674;19.320;2023-07-20T01:20:20;18.00;73.00
26579;DHT22;14227;47.674;19.320;2023-07-20T01:28:44;17.90;72.20
26579;DHT22;14227;47.674;19.320;2023-07-20T01:31:27;17.80;72.80
26579;DHT22;14227;47.674;19.320;2023-07-20T01:33:56;17.70;72.70
26579;DHT22;14227;47.674;19.320;2023-07-20T01:36:24;17.70;72.70
26579;DHT22;14227;47.674;19.320;2023-07-20T01:38:51;17.80;72.80
26579;DHT22;14227;47.674;19.320;2023-07-20T01:41:18;17.70;72.70
26579;DHT22;14227;47.674;19.320;2023-07-20T01:43:43;17.60;73.60
26579;DHT22;14227;47.674;19.320;2023-07-20T01:46:10;17.60;73.90
26579;DHT22;14227;47.674;19.320;2023-07-20T01:48:35;17.60;73.30
26579;DHT22;14227;47.674;19.320;2023-07-20T01:51:01;17.50;72.50
26579;DHT22;14227;47.674;19.320;2023-07-20T01:53:27;17.50;73.30
26579;DHT22;14227;47.674;19.320;2023-07-20T01:55:54;17.50;73.30
26579;DHT22;14227;47.674;19.320;2023-07-20T01:58:20;17.50;73.60
26579;DHT22;14227;47.674;19.320;2023-07-20T02:00:46;17.40;72.70
26579;DHT22;14227;47.674;19.320;2023-07-20T02:03:11;17.40;72.40
26579;DHT22;14227;47.674;19.320;2023-07-20T02:05:38;17.40;72.40
26579;DHT22;14227;47.674;19.320;2023-07-20T02:08:04;17.40;73.30
26579;DHT22;14227;47.674;19.320;2023-07-20T02:10:29;17.40;74.30
26579;DHT22;14227;47.674;19.320;2023-07-20T02:12:55;17.30;72.60
26579;DHT22;14227;47.674;19.320;2023-07-20T02:15:21;17.30;72.30
26579;DHT22;14227;47.674;19.320;2023-07-20T02:17:47;17.30;72.30
26579;DHT22;14227;47.674;19.320;2023-07-20T02:20:13;17.20;72.70
26579;DHT22;14227;47.674;19.320;2023-07-20T02:22:39;17.20;74.20
26579;DHT22;14227;47.674;19.320;2023-07-20T02:25:06;17.10;74.80
26579;DHT22;14227;47.674;19.320;2023-07-20T02:27:36;17.10;74.10
26579;DHT22;14227;47.674;19.320;2023-07-20T02:30:03;17.00;74.50
26579;DHT22;14227;47.674;19.320;2023-07-20T02:32:30;17.00;74.20
26579;DHT22;14227;47.674;19.320;2023-07-20T02:34:57;17.00;74.40
26579;DHT22;14227;47.674;19.320;2023-07-20T02:37:23;16.90;74.30
26579;DHT22;14227;47.674;19.320;2023-07-20T02:39:48;16.90;74.10
26579;DHT22;14227;47.674;19.320;2023-07-20T02:42:14;16.80;73.40
26579;DHT22;14227;47.674;19.320;2023-07-20T02:44:40;16.80;74.00
26579;DHT22;14227;47.674;19.320;2023-07-20T02:47:06;16.80;74.90
26579;DHT22;14227;47.674;19.320;2023-07-20T02:49:31;16.80;75.50
26579;DHT22;14227;47.674;19.320;2023-07-20T02:51:57;16.90;75.70
26579;DHT22;14227;47.674;19.320;2023-07-20T02:54:23;16.90;75.50
26579;DHT22;14227;47.674;19.320;2023-07-20T02:56:48;16.90;75.80
26579;DHT22;14227;47.674;19.320;2023-07-20T02:59:14;17.00;75.70
26579;DHT22;14227;47.674;19.320;2023-07-20T03:01:40;17.10;76.30
26579;DHT22;14227;47.674;19.320;2023-07-20T03:04:08;17.10;76.00
26579;DHT22;14227;47.674;19.320;2023-07-20T03:06:36;17.10;75.60
26579;DHT22;14227;47.674;19.320;2023-07-20T03:09:02;17.10;74.80
26579;DHT22;14227;47.674;19.320;2023-07-20T03:11:28;17.10;73.50
26579;DHT22;14227;47.674;19.320;2023-07-20T03:13:53;17.10;72.80
26579;DHT22;14227;47.674;19.320;2023-07-20T03:16:20;17.10;72.80
26579;DHT22;14227;47.674;19.320;2023-07-20T03:18:46;17.00;73.10
26579;DHT22;14227;47.674;19.320;2023-07-20T03:21:12;17.00;74.10
26579;DHT22;14227;47.674;19.320;2023-07-20T03:23:41;17.00;73.70
26579;DHT22;14227;47.674;19.320;2023-07-20T03:26:07;17.00;73.40
26579;DHT22;14227;47.674;19.320;2023-07-20T03:28:36;16.90;73.70
26579;DHT22;14227;47.674;19.320;2023-07-20T03:31:03;17.00;74.40
26579;DHT22;14227;47.674;19.320;2023-07-20T03:33:30;17.00;74.80
26579;DHT22;14227;47.674;19.320;2023-07-20T03:35:56;17.00;74.60
26579;DHT22;14227;47.674;19.320;2023-07-20T03:38:23;17.00;74.60
26579;DHT22;14227;47.674;19.320;2023-07-20T03:40:57;17.00;74.60
26579;DHT22;14227;47.674;19.320;2023-07-20T03:43:24;17.10;76.00
26579;DHT22;14227;47.674;19.320;2023-07-20T03:45:51;17.20;76.90
26579;DHT22;14227;47.674;19.320;2023-07-20T03:48:17;17.30;78.00
26579;DHT22;14227;47.674;19.320;2023-07-20T03:50:48;17.40;78.40
26579;DHT22;14227;47.674;19.320;2023-07-20T03:53:14;17.50;77.50
26579;DHT22;14227;47.674;19.320;2023-07-20T03:55:41;17.50;78.50
26579;DHT22;14227;47.674;19.320;2023-07-20T03:58:07;17.60;79.30
26579;DHT22;14227;47.674;19.320;2023-07-20T04:00:34;17.80;80.20
26579;DHT22;14227;47.674;19.320;2023-07-20T04:03:00;17.90;80.50
26579;DHT22;14227;47.674;19.320;2023-07-20T04:05:26;18.10;80.50
26579;DHT22;14227;47.674;19.320;2023-07-20T04:07:52;18.20;80.60
26579;DHT22;14227;47.674;19.320;2023-07-20T04:10:18;18.30;80.30
26579;DHT22;14227;47.674;19.320;2023-07-20T04:12:45;18.40;80.30
26579;DHT22;14227;47.674;19.320;2023-07-20T04:15:12;18.50;80.10
26579;DHT22;14227;47.674;19.320;2023-07-20T04:17:38;18.70;80.10
26579;DHT22;14227;47.674;19.320;2023-07-20T04:20:05;18.80;80.00
26579;DHT22;14227;47.674;19.320;2023-07-20T04:22:31;18.90;79.50
26579;DHT22;14227;47.674;19.320;2023-07-20T04:24:57;19.00;79.00
26579;DHT22;14227;47.674;19.320;2023-07-20T04:27:23;19.10;78.40
26579;DHT22;14227;47.674;19.320;2023-07-20T04:29:48;19.30;77.60
26579;DHT22;14227;47.674;19.320;2023-07-20T04:32:14;19.40;76.60
26579;DHT22;14227;47.674;19.320;2023-07-20T04:34:40;19.50;75.70
26579;DHT22;14227;47.674;19.320;2023-07-20T04:37:05;19.50;74.80
26579;DHT22;14227;47.674;19.320;2023-07-20T04:39:31;19.70;74.50
26579;DHT22;14227;47.674;19.320;2023-07-20T04:41:57;19.70;74.50
26579;DHT22;14227;47.674;19.320;2023-07-20T04:44:23;19.80;74.60
26579;DHT22;14227;47.674;19.320;2023-07-20T04:46:49;19.80;73.60
26579;DHT22;14227;47.674;19.320;2023-07-20T04:49:14;19.90;73.40
26579;DHT22;14227;47.674;19.320;2023-07-20T04:51:40;20.00;72.90
26579;DHT22;14227;47.674;19.320;2023-07-20T04:54:06;20.00;73.00
26579;DHT22;14227;47.674;19.320;2023-07-20T04:56:31;20.00;72.70
26579;DHT22;14227;47.674;19.320;2023-07-20T04:58:57;20.10;72.70
26579;DHT22;14227;47.674;19.320;2023-07-20T05:01:23;20.30;72.80
26579;DHT22;14227;47.674;19.320;2023-07-20T05:03:49;20.40;72.70
26579;DHT22;14227;47.674;19.320;2023-07-20T05:06:15;20.50;72.80
26579;DHT22;14227;47.674;19.320;2023-07-20T05:08:41;20.70;72.30
26579;DHT22;14227;47.674;19.320;2023-07-20T05:11:07;20.80;70.70
26579;DHT22;14227;47.674;19.320;2023-07-20T05:13:33;21.00;70.20
26579;DHT22;14227;47.674;19.320;2023-07-20T05:15:59;21.10;68.40
26579;DHT22;14227;47.674;19.320;2023-07-20T05:18:25;21.30;66.40
26579;DHT22;14227;47.674;19.320;2023-07-20T05:20:51;21.40;66.00
26579;DHT22;14227;47.674;19.320;2023-07-20T05:23:20;21.60;65.70
26579;DHT22;14227;47.674;19.320;2023-07-20T05:25:46;21.70;65.20
26579;DHT22;14227;47.674;19.320;2023-07-20T05:28:12;21.80;63.60
26579;DHT22;14227;47.674;19.320;2023-07-20T05:30:37;21.90;63.20
26579;DHT22;14227;47.674;19.320;2023-07-20T05:33:03;22.00;62.50
26579;DHT22;14227;47.674;19.320;2023-07-20T05:35:29;22.00;61.40
26579;DHT22;14227;47.674;19.320;2023-07-20T05:37:54;22.10;60.50
26579;DHT22;14227;47.674;19.320;2023-07-20T05:40:20;22.20;60.60
26579;DHT22;14227;47.674;19.320;2023-07-20T05:42:47;22.30;60.20
26579;DHT22;14227;47.674;19.320;2023-07-20T05:45:14;22.40;59.30
26579;DHT22;14227;47.674;19.320;2023-07-20T05:47:41;22.50;60.30
26579;DHT22;14227;47.674;19.320;2023-07-20T05:50:07;22.60;58.40
26579;DHT22;14227;47.674;19.320;2023-07-20T05:52:33;22.80;58.90
26579;DHT22;14227;47.674;19.320;2023-07-20T05:54:58;22.90;57.00
26579;DHT22;14227;47.674;19.320;2023-07-20T05:57:24;23.30;56.10
26579;DHT22;14227;47.674;19.320;2023-07-20T05:59:50;23.80;55.10
26579;DHT22;14227;47.674;19.320;2023-07-20T06:02:16;24.20;53.50
26579;DHT22;14227;47.674;19.320;2023-07-20T06:04:42;24.80;53.10
26579;DHT22;14227;47.674;19.320;2023-07-20T06:07:07;25.30;49.40
26579;DHT22;14227;47.674;19.320;2023-07-20T06:09:33;25.80;47.80
26579;DHT22;14227;47.674;19.320;2023-07-20T06:11:59;26.30;45.30
26579;DHT22;14227;47.674;19.320;2023-07-20T06:14:25;26.80;40.90
26579;DHT22;14227;47.674;19.320;2023-07-20T06:16:51;27.20;38.10
26579;DHT22;14227;47.674;19.320;2023-07-20T06:19:17;27.70;36.70
26579;DHT22;14227;47.674;19.320;2023-07-20T06:21:43;28.00;32.90
26579;DHT22;14227;47.674;19.320;2023-07-20T06:24:09;28.40;31.40
26579;DHT22;14227;47.674;19.320;2023-07-20T06:26:35;28.80;31.70
26579;DHT22;14227;47.674;19.320;2023-07-20T06:29:07;29.10;29.20
26579;DHT22;14227;47.674;19.320;2023-07-20T06:31:35;29.40;28.90
26579;DHT22;14227;47.674;19.320;2023-07-20T06:34:01;29.70;28.80
26579;DHT22;14227;47.674;19.320;2023-07-20T06:36:27;30.00;27.10
26579;DHT22;14227;47.674;19.320;2023-07-20T06:38:54;30.20;26.80
26579;DHT22;14227;47.674;19.320;2023-07-20T06:41:20;30.30;25.20
26579;DHT22;14227;47.674;19.320;2023-07-20T06:43:46;30.50;25.60
26579;DHT22;14227;47.674;19.320;2023-07-20T06:46:12;30.70;25.40
26579;DHT22;14227;47.674;19.320;2023-07-20T06:48:38;30.90;24.50
26579;DHT22;14227;47.674;19.320;2023-07-20T06:51:03;31.30;25.10
26579;DHT22;14227;47.674;19.320;2023-07-20T06:53:30;31.50;23.30
26579;DHT22;14227;47.674;19.320;2023-07-20T06:55:55;31.70;22.90
26579;DHT22;14227;47.674;19.320;2023-07-20T06:58:24;31.90;22.60
26579;DHT22;14227;47.674;19.320;2023-07-20T07:00:53;32.00;22.20
26579;DHT22;14227;47.674;19.320;2023-07-20T07:03:19;32.20;22.00
26579;DHT22;14227;47.674;19.320;2023-07-20T07:05:49;32.30;22.50
26579;DHT22;14227;47.674;19.320;2023-07-20T07:08:14;32.60;21.80
26579;DHT22;14227;47.674;19.320;2023-07-20T07:10:40;32.80;21.90
26579;DHT22;14227;47.674;19.320;2023-07-20T07:13:06;32.90;20.90
26579;DHT22;14227;47.674;19.320;2023-07-20T07:15:31;33.20;20.90
26579;DHT22;14227;47.674;19.320;2023-07-20T07:17:57;33.50;20.70
26579;DHT22;14227;47.674;19.320;2023-07-20T07:20:24;33.70;20.00
26579;DHT22;14227;47.674;19.320;2023-07-20T07:22:50;33.90;19.40
26579;DHT22;14227;47.674;19.320;2023-07-20T07:25:17;34.20;19.60
26579;DHT22;14227;47.674;19.320;2023-07-20T07:27:43;34.40;18.50
26579;DHT22;14227;47.674;19.320;2023-07-20T07:30:09;34.60;18.10
26579;DHT22;14227;47.674;19.320;2023-07-20T07:32:35;34.70;18.20
26579;DHT22;14227;47.674;19.320;2023-07-20T07:35:01;34.80;18.20
26579;DHT22;14227;47.674;19.320;2023-07-20T07:37:27;34.90;17.50
26579;DHT22;14227;47.674;19.320;2023-07-20T07:39:53;35.00;17.30
26579;DHT22;14227;47.674;19.320;2023-07-20T07:42:18;35.20;17.00
26579;DHT22;14227;47.674;19.320;2023-07-20T07:44:45;35.20;17.00
26579;DHT22;14227;47.674;19.320;2023-07-20T07:47:10;35.30;16.00
26579;DHT22;14227;47.674;19.320;2023-07-20T07:49:36;35.40;16.40
26579;DHT22;14227;47.674;19.320;2023-07-20T07:52:02;35.70;16.40
26579;DHT22;14227;47.674;19.320;2023-07-20T07:54:29;36.00;16.20
26579;DHT22;14227;47.674;19.320;2023-07-20T07:56:56;36.20;15.50
26579;DHT22;14227;47.674;19.320;2023-07-20T07:59:22;36.30;15.00
26579;DHT22;14227;47.674;19.320;2023-07-20T08:01:48;36.50;14.70
26579;DHT22;14227;47.674;19.320;2023-07-20T08:04:15;36.60;14.30
26579;DHT22;14227;47.674;19.320;2023-07-20T08:06:40;36.70;14.40
26579;DHT22;14227;47.674;19.320;2023-07-20T08:09:06;36.90;14.50
26579;DHT22;14227;47.674;19.320;2023-07-20T08:11:33;37.20;14.60
26579;DHT22;14227;47.674;19.320;2023-07-20T08:14:02;37.30;13.60
26579;DHT22;14227;47.674;19.320;2023-07-20T08:16:28;37.40;14.00
26579;DHT22;14227;47.674;19.320;2023-07-20T08:18:54;37.40;14.00
26579;DHT22;14227;47.674;19.320;2023-07-20T08:21:19;37.50;14.00
26579;DHT22;14227;47.674;19.320;2023-07-20T08:23:45;37.90;13.20
26579;DHT22;14227;47.674;19.320;2023-07-20T08:26:11;38.20;13.10
26579;DHT22;14227;47.674;19.320;2023-07-20T08:28:37;38.40;13.00
26579;DHT22;14227;47.674;19.320;2023-07-20T08:31:05;38.10;12.20
26579;DHT22;14227;47.674;19.320;2023-07-20T08:33:32;37.90;13.00
26579;DHT22;14227;47.674;19.320;2023-07-20T08:36:00;37.40;12.50
26579;DHT22;14227;47.674;19.320;2023-07-20T08:38:26;36.90;12.80
26579;DHT22;14227;47.674;19.320;2023-07-20T08:40:52;36.40;13.60
26579;DHT22;14227;47.674;19.320;2023-07-20T08:43:27;36.00;13.90
26579;DHT22;14227;47.674;19.320;2023-07-20T08:45:56;35.90;14.20
26579;DHT22;14227;47.674;19.320;2023-07-20T08:48:22;36.30;14.10
26579;DHT22;14227;47.674;19.320;2023-07-20T08:50:53;36.60;13.70
26579;DHT22;14227;47.674;19.320;2023-07-20T08:53:20;37.10;13.10
26579;DHT22;14227;47.674;19.320;2023-07-20T08:55:46;37.50;12.70
26579;DHT22;14227;47.674;19.320;2023-07-20T08:58:13;37.90;12.30
26579;DHT22;14227;47.674;19.320;2023-07-20T09:00:43;38.40;11.10
26579;DHT22;14227;47.674;19.320;2023-07-20T09:03:10;39.00;10.60
26579;DHT22;14227;47.674;19.320;2023-07-20T09:05:36;39.40;9.70
26579;DHT22;14227;47.674;19.320;2023-07-20T09:08:02;39.80;9.30
26579;DHT22;14227;47.674;19.320;2023-07-20T09:10:31;40.20;8.70
26579;DHT22;14227;47.674;19.320;2023-07-20T09:12:57;40.90;8.20
26579;DHT22;14227;47.674;19.320;2023-07-20T09:15:23;41.70;7.60
26579;DHT22;14227;47.674;19.320;2023-07-20T09:17:49;42.10;6.80
26579;DHT22;14227;47.674;19.320;2023-07-20T09:20:17;42.40;6.40
26579;DHT22;14227;47.674;19.320;2023-07-20T09:22:44;42.50;6.30
26579;DHT22;14227;47.674;19.320;2023-07-20T09:25:17;42.60;6.40
26579;DHT22;14227;47.674;19.320;2023-07-20T09:27:48;42.80;6.00
26579;DHT22;14227;47.674;19.320;2023-07-20T09:30:15;43.10;5.90
26579;DHT22;14227;47.674;19.320;2023-07-20T09:32:47;43.20;5.70
26579;DHT22;14227;47.674;19.320;2023-07-20T09:35:17;43.40;5.50
26579;DHT22;14227;47.674;19.320;2023-07-20T09:38:09;43.50;5.50
26579;DHT22;14227;47.674;19.320;2023-07-20T09:40:40;43.70;5.70
26579;DHT22;14227;47.674;19.320;2023-07-20T09:43:08;43.80;5.60
26579;DHT22;14227;47.674;19.320;2023-07-20T09:45:41;44.00;6.20
26579;DHT22;14227;47.674;19.320;2023-07-20T09:48:08;44.10;5.20
26579;DHT22;14227;47.674;19.320;2023-07-20T09:50:49;44.10;5.50
26579;DHT22;14227;47.674;19.320;2023-07-20T09:53:15;44.20;5.20
26579;DHT22;14227;47.674;19.320;2023-07-20T09:55:44;44.30;5.10
26579;DHT22;14227;47.674;19.320;2023-07-20T09:58:10;44.40;5.00
26579;DHT22;14227;47.674;19.320;2023-07-20T10:00:38;44.80;4.80
26579;DHT22;14227;47.674;19.320;2023-07-20T10:03:10;45.10;4.40
26579;DHT22;14227;47.674;19.320;2023-07-20T10:05:40;45.30;3.80
26579;DHT22;14227;47.674;19.320;2023-07-20T10:08:11;45.00;3.90
26579;DHT22;14227;47.674;19.320;2023-07-20T10:10:41;45.00;4.40
26579;DHT22;14227;47.674;19.320;2023-07-20T10:13:17;45.30;3.90
26579;DHT22;14227;47.674;19.320;2023-07-20T10:15:46;45.80;4.10
26579;DHT22;14227;47.674;19.320;2023-07-20T10:18:18;46.20;3.90
26579;DHT22;14227;47.674;19.320;2023-07-20T10:20:49;46.80;2.90
26579;DHT22;14227;47.674;19.320;2023-07-20T10:23:17;47.10;2.50
26579;DHT22;14227;47.674;19.320;2023-07-20T10:25:43;47.40;2.50
26579;DHT22;14227;47.674;19.320;2023-07-20T10:28:10;47.90;2.50
26579;DHT22;14227;47.674;19.320;2023-07-20T10:30:37;48.00;1.80
26579;DHT22;14227;47.674;19.320;2023-07-20T10:33:03;47.60;1.70
26579;DHT22;14227;47.674;19.320;2023-07-20T10:35:30;46.80;2.80
26579;DHT22;14227;47.674;19.320;2023-07-20T10:38:03;45.90;3.20
26579;DHT22;14227;47.674;19.320;2023-07-20T10:40:30;45.20;3.80
26579;DHT22;14227;47.674;19.320;2023-07-20T10:43:01;44.30;3.80
26579;DHT22;14227;47.674;19.320;2023-07-20T10:45:41;43.30;4.70
26579;DHT22;14227;47.674;19.320;2023-07-20T10:50:43;42.40;5.40
26579;DHT22;14227;47.674;19.320;2023-07-20T10:53:17;42.90;5.10
26579;DHT22;14227;47.674;19.320;2023-07-20T10:55:43;43.80;4.50
26579;DHT22;14227;47.674;19.320;2023-07-20T10:58:10;44.20;3.20
26579;DHT22;14227;47.674;19.320;2023-07-20T11:00:37;44.40;3.30
26579;DHT22;14227;47.674;19.320;2023-07-20T11:03:04;44.10;3.40
26579;DHT22;14227;47.674;19.320;2023-07-20T11:05:39;43.70;3.90
26579;DHT22;14227;47.674;19.320;2023-07-20T11:08:38;43.10;4.40
26579;DHT22;14227;47.674;19.320;2023-07-20T11:11:34;42.50;5.10
26579;DHT22;14227;47.674;19.320;2023-07-20T11:14:02;41.80;5.80
26579;DHT22;14227;47.674;19.320;2023-07-20T11:16:41;41.50;6.30
26579;DHT22;14227;47.674;19.320;2023-07-20T11:19:18;41.20;6.10
26579;DHT22;14227;47.674;19.320;2023-07-20T11:21:46;40.40;6.30
26579;DHT22;14227;47.674;19.320;2023-07-20T11:24:16;39.90;7.20
26579;DHT22;14227;47.674;19.320;2023-07-20T11:26:47;39.30;7.60
26579;DHT22;14227;47.674;19.320;2023-07-20T11:29:13;38.80;8.40
26579;DHT22;14227;47.674;19.320;2023-07-20T11:31:40;38.60;8.50
26579;DHT22;14227;47.674;19.320;2023-07-20T11:34:10;38.60;9.10
26579;DHT22;14227;47.674;19.320;2023-07-20T11:36:37;39.30;8.10
26579;DHT22;14227;47.674;19.320;2023-07-20T11:39:03;40.50;7.70
26579;DHT22;14227;47.674;19.320;2023-07-20T11:41:31;41.50;6.30
26579;DHT22;14227;47.674;19.320;2023-07-20T11:43:57;42.40;5.70
26579;DHT22;14227;47.674;19.320;2023-07-20T11:46:23;43.00;4.60
26579;DHT22;14227;47.674;19.320;2023-07-20T11:48:48;43.60;4.40
26579;DHT22;14227;47.674;19.320;2023-07-20T11:51:17;44.10;3.90
26579;DHT22;14227;47.674;19.320;2023-07-20T11:53:44;44.80;3.60
26579;DHT22;14227;47.674;19.320;2023-07-20T11:56:12;45.10;2.60
26579;DHT22;14227;47.674;19.320;2023-07-20T11:58:43;45.60;2.50
26579;DHT22;14227;47.674;19.320;2023-07-20T12:01:09;45.80;2.40
26579;DHT22;14227;47.674;19.320;2023-07-20T12:03:36;46.10;2.60
26579;DHT22;14227;47.674;19.320;2023-07-20T12:06:12;46.40;1.70
26579;DHT22;14227;47.674;19.320;2023-07-20T12:08:58;46.70;1.00
26579;DHT22;14227;47.674;19.320;2023-07-20T12:11:37;46.70;1.00
26579;DHT22;14227;47.674;19.320;2023-07-20T12:14:06;46.70;1.00
26579;DHT22;14227;47.674;19.320;2023-07-20T12:16:32;46.70;1.00
26579;DHT22;14227;47.674;19.320;2023-07-20T12:19:06;46.80;1.00
26579;DHT22;14227;47.674;19.320;2023-07-20T12:21:34;46.90;1.00
26579;DHT22;14227;47.674;19.320;2023-07-20T12:24:00;47.40;1.00
26579;DHT22;14227;47.674;19.320;2023-07-20T12:26:26;47.70;1.00
26579;DHT22;14227;47.674;19.320;2023-07-20T12:28:54;47.80;1.00
26579;DHT22;14227;47.674;19.320;2023-07-20T12:31:20;48.00;1.00
26579;DHT22;14227;47.674;19.320;2023-07-20T12:33:49;47.90;1.00
26579;DHT22;14227;47.674;19.320;2023-07-20T12:36:15;47.50;1.00
26579;DHT22;14227;47.674;19.320;2023-07-20T12:38:41;47.40;1.00
26579;DHT22;14227;47.674;19.320;2023-07-20T12:41:09;47.40;1.00
26579;DHT22;14227;47.674;19.320;2023-07-20T12:43:35;47.60;1.00
26579;DHT22;14227;47.674;19.320;2023-07-20T12:46:00;47.70;1.00
26579;DHT22;14227;47.674;19.320;2023-07-20T12:48:26;47.60;1.00
26579;DHT22;14227;47.674;19.320;2023-07-20T12:50:52;47.60;1.00
26579;DHT22;14227;47.674;19.320;2023-07-20T12:53:18;47.70;1.00
26579;DHT22;14227;47.674;19.320;2023-07-20T12:55:47;47.70;1.00
26579;DHT22;14227;47.674;19.320;2023-07-20T12:58:15;47.50;1.00
26579;DHT22;14227;47.674;19.320;2023-07-20T13:00:40;46.70;1.00
26579;DHT22;14227;47.674;19.320;2023-07-20T13:03:07;45.70;1.00
26579;DHT22;14227;47.674;19.320;2023-07-20T13:05:34;44.50;1.50
26579;DHT22;14227;47.674;19.320;2023-07-20T13:08:10;43.70;2.50
26579;DHT22;14227;47.674;19.320;2023-07-20T13:10:36;42.60;3.20
26579;DHT22;14227;47.674;19.320;2023-07-20T13:13:04;41.90;4.20
26579;DHT22;14227;47.674;19.320;2023-07-20T13:15:31;41.90;4.60
26579;DHT22;14227;47.674;19.320;2023-07-20T13:17:58;42.30;3.90
26579;DHT22;14227;47.674;19.320;2023-07-20T13:20:25;41.90;4.00
26579;DHT22;14227;47.674;19.320;2023-07-20T13:22:51;41.70;4.30
26579;DHT22;14227;47.674;19.320;2023-07-20T13:25:17;42.20;4.40
26579;DHT22;14227;47.674;19.320;2023-07-20T13:27:43;42.80;3.80
26579;DHT22;14227;47.674;19.320;2023-07-20T13:30:09;43.60;2.90
26579;DHT22;14227;47.674;19.320;2023-07-20T13:32:39;44.20;3.00
26579;DHT22;14227;47.674;19.320;2023-07-20T13:35:05;44.80;2.00
26579;DHT22;14227;47.674;19.320;2023-07-20T13:37:31;45.20;2.00
26579;DHT22;14227;47.674;19.320;2023-07-20T13:39:57;45.30;1.30
26579;DHT22;14227;47.674;19.320;2023-07-20T13:42:23;45.60;1.20
26579;DHT22;14227;47.674;19.320;2023-07-20T13:44:49;45.60;1.00
26579;DHT22;14227;47.674;19.320;2023-07-20T13:47:14;45.50;1.00
26579;DHT22;14227;47.674;19.320;2023-07-20T13:49:40;45.80;1.00
26579;DHT22;14227;47.674;19.320;2023-07-20T13:52:06;45.70;1.00
26579;DHT22;14227;47.674;19.320;2023-07-20T13:54:33;45.50;1.00
26579;DHT22;14227;47.674;19.320;2023-07-20T13:56:59;45.40;1.00
26579;DHT22;14227;47.674;19.320;2023-07-20T13:59:24;45.50;1.00
26579;DHT22;14227;47.674;19.320;2023-07-20T14:01:50;45.90;1.00
26579;DHT22;14227;47.674;19.320;2023-07-20T14:04:16;46.00;1.00
26579;DHT22;14227;47.674;19.320;2023-07-20T14:06:42;46.20;1.00
26579;DHT22;14227;47.674;19.320;2023-07-20T14:09:08;46.20;1.00
26579;DHT22;14227;47.674;19.320;2023-07-20T14:11:34;46.30;1.00
26579;DHT22;14227;47.674;19.320;2023-07-20T14:14:00;46.30;1.00
26579;DHT22;14227;47.674;19.320;2023-07-20T14:16:26;46.40;1.00
26579;DHT22;14227;47.674;19.320;2023-07-20T14:18:51;46.60;1.00
26579;DHT22;14227;47.674;19.320;2023-07-20T14:21:18;46.90;1.00
26579;DHT22;14227;47.674;19.320;2023-07-20T14:23:50;46.90;1.00
26579;DHT22;14227;47.674;19.320;2023-07-20T14:26:16;46.60;1.00
26579;DHT22;14227;47.674;19.320;2023-07-20T14:28:42;46.60;1.00
26579;DHT22;14227;47.674;19.320;2023-07-20T14:31:08;46.50;1.00
26579;DHT22;14227;47.674;19.320;2023-07-20T14:33:34;46.50;1.00
26579;DHT22;14227;47.674;19.320;2023-07-20T14:36:00;46.20;1.00
26579;DHT22;14227;47.674;19.320;2023-07-20T14:38:30;46.20;1.00
26579;DHT22;14227;47.674;19.320;2023-07-20T14:40:56;46.50;1.00
26579;DHT22;14227;47.674;19.320;2023-07-20T14:43:22;46.70;1.00
26579;DHT22;14227;47.674;19.320;2023-07-20T14:45:48;46.60;1.00
26579;DHT22;14227;47.674;19.320;2023-07-20T14:48:14;46.50;1.00
26579;DHT22;14227;47.674;19.320;2023-07-20T14:50:40;46.00;1.00
26579;DHT22;14227;47.674;19.320;2023-07-20T14:53:08;45.20;1.20
26579;DHT22;14227;47.674;19.320;2023-07-20T14:55:34;45.00;1.00
26579;DHT22;14227;47.674;19.320;2023-07-20T14:58:00;44.90;1.10
26579;DHT22;14227;47.674;19.320;2023-07-20T15:00:26;45.10;1.40
26579;DHT22;14227;47.674;19.320;2023-07-20T15:02:51;45.20;1.20
26579;DHT22;14227;47.674;19.320;2023-07-20T15:05:22;45.10;1.00
26579;DHT22;14227;47.674;19.320;2023-07-20T15:07:50;44.90;1.30
26579;DHT22;14227;47.674;19.320;2023-07-20T15:10:16;44.80;1.30
26579;DHT22;14227;47.674;19.320;2023-07-20T15:12:42;44.60;1.30
26579;DHT22;14227;47.674;19.320;2023-07-20T15:15:10;44.40;1.80
26579;DHT22;14227;47.674;19.320;2023-07-20T15:17:37;44.00;2.10
26579;DHT22;14227;47.674;19.320;2023-07-20T15:20:05;43.70;2.50
26579;DHT22;14227;47.674;19.320;2023-07-20T15:22:37;43.60;2.60
26579;DHT22;14227;47.674;19.320;2023-07-20T15:25:05;43.60;2.90
26579;DHT22;14227;47.674;19.320;2023-07-20T15:27:32;42.80;2.80
26579;DHT22;14227;47.674;19.320;2023-07-20T15:29:58;42.10;3.60
26579;DHT22;14227;47.674;19.320;2023-07-20T15:32:24;41.40;4.20